createdAt,value
2023-10-18T00:01:43.323Z,17.95
2023-10-18T00:04:12.235Z,22.40
2023-10-18T00:06:40.428Z,19.20
2023-10-18T00:09:27.404Z,20.05
2023-10-18T00:11:54.307Z,18.77
2023-10-18T00:14:21.142Z,17.40
2023-10-18T00:16:47.894Z,14.57
2023-10-18T00:19:14.892Z,19.98
2023-10-18T00:21:41.792Z,19.42
2023-10-18T00:24:10.726Z,22.73
2023-10-18T00:26:39.161Z,18.52
2023-10-18T00:29:06.035Z,20.38
2023-10-18T00:31:32.913Z,22.73
2023-10-18T00:33:59.744Z,20.08
2023-10-18T00:36:26.599Z,16.08
2023-10-18T00:38:54.512Z,18.08
2023-10-18T00:41:27.212Z,20.05
2023-10-18T00:43:54.677Z,25.75
2023-10-18T00:46:22.481Z,17.25
2023-10-18T00:48:50.031Z,19.23
2023-10-18T00:51:18.797Z,19.05
2023-10-18T00:53:47.584Z,23.52
2023-10-18T00:56:16.704Z,22.52
2023-10-18T00:58:45.333Z,24.67
2023-10-18T01:01:13.355Z,21.67
2023-10-18T01:03:51.432Z,16.63
2023-10-18T01:06:23.037Z,18.90
2023-10-18T01:08:50.349Z,21.50
2023-10-18T01:11:25.115Z,18.83
2023-10-18T01:13:52.083Z,25.08
2023-10-18T01:16:23.009Z,19.27
2023-10-18T01:18:53.354Z,20.55
2023-10-18T01:21:22.054Z,18.10
2023-10-18T01:23:52.265Z,21.08
2023-10-18T01:26:24.430Z,20.55
2023-10-18T01:28:55.631Z,18.70
2023-10-18T01:31:23.987Z,22.33
2023-10-18T01:33:52.723Z,21.50
2023-10-18T01:36:22.608Z,18.17
2023-10-18T01:38:57.210Z,21.73
2023-10-18T01:41:27.340Z,26.23
2023-10-18T01:44:08.656Z,24.35
2023-10-18T01:46:50.317Z,19.80
2023-10-18T01:49:22.614Z,21.73
2023-10-18T01:51:54.841Z,18.25
2023-10-18T01:54:26.273Z,18.60
2023-10-18T01:56:54.798Z,17.13
2023-10-18T01:59:28.935Z,20.55
2023-10-18T02:02:00.180Z,21.42
2023-10-18T02:04:44.527Z,19.75
2023-10-18T02:07:18.504Z,20.88
2023-10-18T02:09:59.350Z,17.17
2023-10-18T02:12:28.742Z,17.67
2023-10-18T02:15:01.172Z,22.52
2023-10-18T02:17:28.546Z,22.13
2023-10-18T02:19:55.665Z,22.95
2023-10-18T02:22:22.512Z,16.35
2023-10-18T02:24:51.653Z,17.38
2023-10-18T02:27:20.798Z,22.48
2023-10-18T02:29:48.120Z,21.48
2023-10-18T02:32:44.025Z,17.10
2023-10-18T02:35:10.841Z,14.43
2023-10-18T02:37:37.655Z,15.88
2023-10-18T02:40:11.119Z,20.65
2023-10-18T02:42:38.963Z,17.10
2023-10-18T02:45:14.369Z,14.27
2023-10-18T02:47:42.256Z,18.58
2023-10-18T02:50:09.443Z,20.67
2023-10-18T02:52:36.711Z,19.23
2023-10-18T02:55:04.747Z,11.40
2023-10-18T02:57:33.477Z,18.23
2023-10-18T03:00:11.423Z,23.58
2023-10-18T03:02:39.607Z,17.33
2023-10-18T03:05:08.005Z,17.10
2023-10-18T03:07:37.666Z,21.58
2023-10-18T03:10:19.796Z,19.92
2023-10-18T03:12:46.662Z,16.15
2023-10-18T03:15:19.470Z,17.27
2023-10-18T03:17:50.348Z,16.30
2023-10-18T03:20:23.346Z,17.13
2023-10-18T03:22:51.705Z,19.30
2023-10-18T03:25:18.793Z,21.58
2023-10-18T03:27:52.653Z,22.90
2023-10-18T03:30:20.196Z,17.70
2023-10-18T03:32:55.681Z,16.95
2023-10-18T03:35:23.490Z,16.75
2023-10-18T03:37:50.521Z,20.48
2023-10-18T03:40:38.061Z,21.40
2023-10-18T03:43:10.898Z,17.75
2023-10-18T03:45:59.470Z,24.40
2023-10-18T03:48:28.068Z,22.05
2023-10-18T03:51:01.659Z,16.63
2023-10-18T03:53:28.500Z,19.40
2023-10-18T03:55:57.562Z,21.33
2023-10-18T03:58:26.183Z,18.63
2023-10-18T04:00:56.702Z,24.15
2023-10-18T04:03:30.357Z,23.08
2023-10-18T04:06:05.209Z,23.90
2023-10-18T04:08:33.521Z,21.20
2023-10-18T04:11:00.577Z,25.55
2023-10-18T04:13:33.251Z,23.75
2023-10-18T04:16:12.770Z,18.90
2023-10-18T04:18:43.339Z,18.35
2023-10-18T04:21:17.037Z,18.42
2023-10-18T04:23:51.137Z,25.92
2023-10-18T04:26:22.237Z,18.40
2023-10-18T04:28:50.371Z,22.83
2023-10-18T04:31:22.873Z,21.30
2023-10-18T04:33:51.365Z,18.30
2023-10-18T04:36:21.828Z,17.70
2023-10-18T04:38:50.822Z,17.15
2023-10-18T04:41:22.604Z,17.00
2023-10-18T04:44:12.421Z,23.15
2023-10-18T04:46:39.771Z,17.83
2023-10-18T04:49:09.938Z,17.60
2023-10-18T04:51:42.834Z,21.45
2023-10-18T04:54:17.968Z,20.02
2023-10-18T04:56:47.003Z,17.88
2023-10-18T04:59:18.404Z,15.60
2023-10-18T05:01:57.493Z,19.13
2023-10-18T05:04:35.611Z,27.58
2023-10-18T05:07:16.608Z,19.58
2023-10-18T05:09:45.193Z,21.63
2023-10-18T05:12:22.804Z,18.60
2023-10-18T05:14:54.419Z,18.25
2023-10-18T05:17:26.977Z,15.68
2023-10-18T05:19:57.922Z,18.15
2023-10-18T05:22:26.726Z,20.02
2023-10-18T05:25:17.729Z,16.98
2023-10-18T05:28:08.429Z,22.52
2023-10-18T05:30:56.908Z,20.48
2023-10-18T05:33:41.926Z,19.90
2023-10-18T05:36:31.453Z,18.10
2023-10-18T05:39:17.965Z,20.33
2023-10-18T05:41:49.549Z,26.13
2023-10-18T05:44:16.596Z,17.55
2023-10-18T05:46:43.697Z,18.02
2023-10-18T05:49:29.386Z,15.50
2023-10-18T05:52:00.118Z,18.73
2023-10-18T05:54:29.663Z,15.98
2023-10-18T05:56:57.553Z,18.88
2023-10-18T05:59:32.971Z,17.25
2023-10-18T06:02:11.739Z,20.05
2023-10-18T06:04:45.082Z,19.60
2023-10-18T06:07:13.138Z,22.15
2023-10-18T06:09:48.166Z,20.85
2023-10-18T06:12:23.854Z,19.90
2023-10-18T06:14:54.357Z,22.25
2023-10-18T06:17:27.207Z,17.33
2023-10-18T06:19:58.195Z,22.55
2023-10-18T06:22:40.288Z,25.58
2023-10-18T06:25:11.300Z,19.90
2023-10-18T06:27:41.479Z,25.67
2023-10-18T06:30:19.024Z,19.33
2023-10-18T06:32:46.484Z,25.65
2023-10-18T06:35:19.237Z,22.52
2023-10-18T06:37:46.459Z,23.02
2023-10-18T06:40:24.948Z,22.13
2023-10-18T06:42:52.002Z,18.50
2023-10-18T06:45:27.275Z,23.00
2023-10-18T06:47:56.991Z,23.33
2023-10-18T06:50:29.714Z,19.27
2023-10-18T06:52:57.446Z,23.05
2023-10-18T06:55:42.573Z,21.30
2023-10-18T06:58:16.102Z,14.82
2023-10-18T07:00:53.111Z,23.05
2023-10-18T07:03:26.320Z,15.15
2023-10-18T07:05:53.506Z,22.23
2023-10-18T07:08:20.706Z,18.88
2023-10-18T07:11:15.977Z,23.25
2023-10-18T07:13:48.877Z,17.33
2023-10-18T07:16:17.616Z,24.85
2023-10-18T07:18:45.724Z,18.25
2023-10-18T07:21:20.989Z,21.10
2023-10-18T07:23:54.821Z,18.92
2023-10-18T07:26:23.385Z,14.88
2023-10-18T07:28:51.149Z,15.63
2023-10-18T07:31:24.729Z,21.02
2023-10-18T07:33:52.107Z,13.25
2023-10-18T07:36:23.439Z,15.15
2023-10-18T07:38:51.444Z,16.90
2023-10-18T07:41:27.682Z,24.15
2023-10-18T07:43:56.981Z,15.20
2023-10-18T07:46:26.496Z,17.20
2023-10-18T07:49:05.369Z,16.60
2023-10-18T07:51:33.077Z,15.15
2023-10-18T07:54:01.298Z,10.32
2023-10-18T07:56:30.973Z,14.07
2023-10-18T07:59:21.928Z,14.88
2023-10-18T08:01:49.925Z,14.35
2023-10-18T08:04:22.328Z,12.23
2023-10-18T08:06:52.172Z,11.45
2023-10-18T08:09:21.285Z,15.45
2023-10-18T08:11:48.652Z,10.00
2023-10-18T08:14:18.198Z,21.42
2023-10-18T08:16:45.274Z,10.95
2023-10-18T08:19:23.744Z,13.32
2023-10-18T08:22:06.389Z,15.20
2023-10-18T08:24:36.584Z,7.93
2023-10-18T08:27:10.632Z,6.47
2023-10-18T08:29:40.757Z,6.60
2023-10-18T08:32:16.127Z,4.60
2023-10-18T08:34:44.342Z,6.25
2023-10-18T08:37:17.503Z,5.35
2023-10-18T08:39:54.442Z,6.32
2023-10-18T08:42:26.141Z,4.85
2023-10-18T08:45:05.456Z,11.70
2023-10-18T08:47:41.080Z,3.55
2023-10-18T08:50:11.965Z,5.97
2023-10-18T08:52:43.969Z,4.90
2023-10-18T08:55:45.377Z,5.47
2023-10-18T08:58:23.705Z,4.88
2023-10-18T09:00:56.540Z,9.25
2023-10-18T09:03:28.775Z,5.68
2023-10-18T09:06:06.610Z,4.25
2023-10-18T09:08:39.883Z,4.80
2023-10-18T09:11:33.648Z,2.42
2023-10-18T09:14:10.385Z,6.80
2023-10-18T09:16:42.786Z,6.70
2023-10-18T09:19:12.885Z,4.43
2023-10-18T09:22:01.204Z,3.35
2023-10-18T09:24:33.814Z,4.40
2023-10-18T09:27:02.009Z,7.72
2023-10-18T09:29:29.775Z,4.55
2023-10-18T09:32:04.037Z,5.30
2023-10-18T09:34:40.103Z,3.50
2023-10-18T09:37:13.025Z,3.40
2023-10-18T09:39:40.401Z,3.35
2023-10-18T09:42:13.929Z,2.88
2023-10-18T09:44:44.234Z,2.85
2023-10-18T09:47:11.682Z,2.45
2023-10-18T09:49:42.284Z,8.20
2023-10-18T09:52:13.761Z,4.35
2023-10-18T09:54:51.509Z,2.60
2023-10-18T09:57:25.501Z,2.95
2023-10-18T09:59:56.566Z,3.47
2023-10-18T10:02:25.313Z,2.30
2023-10-18T10:05:04.463Z,2.73
2023-10-18T10:07:40.623Z,2.00
2023-10-18T10:10:11.032Z,2.35
2023-10-18T10:12:43.331Z,4.75
2023-10-18T10:15:18.562Z,3.63
2023-10-18T10:17:58.546Z,5.80
2023-10-18T10:20:35.122Z,3.83
2023-10-18T10:23:15.720Z,4.63
2023-10-18T10:26:18.146Z,2.50
2023-10-18T10:29:11.320Z,2.45
2023-10-18T10:31:52.960Z,10.02
2023-10-18T10:34:33.465Z,3.72
2023-10-18T10:37:08.554Z,2.00
2023-10-18T10:39:45.096Z,2.23
2023-10-18T10:42:20.607Z,2.25
2023-10-18T10:45:19.798Z,1.67
2023-10-18T10:47:48.092Z,4.40
2023-10-18T10:50:53.654Z,2.60
2023-10-18T10:53:45.512Z,5.78
2023-10-18T10:56:19.185Z,2.43
2023-10-18T10:58:57.150Z,2.90
2023-10-18T11:01:58.675Z,3.03
2023-10-18T11:04:30.199Z,3.95
2023-10-18T11:07:02.665Z,3.90
2023-10-18T11:09:34.219Z,8.13
2023-10-18T11:12:25.828Z,4.93
2023-10-18T11:14:53.921Z,3.13
2023-10-18T11:17:24.968Z,1.50
2023-10-18T11:19:56.292Z,2.40
2023-10-18T11:22:25.198Z,3.47
2023-10-18T11:24:54.305Z,3.87
2023-10-18T11:27:34.972Z,4.30
2023-10-18T11:30:20.075Z,1.97
2023-10-18T11:32:51.238Z,2.83
2023-10-18T11:35:28.627Z,6.53
2023-10-18T11:37:56.679Z,2.57
2023-10-18T11:40:23.667Z,2.47
2023-10-18T11:43:07.159Z,2.87
2023-10-18T11:45:35.224Z,3.37
2023-10-18T11:48:04.013Z,2.97
2023-10-18T11:50:52.178Z,2.63
2023-10-18T11:53:24.355Z,2.20
2023-10-18T11:56:02.506Z,4.97
2023-10-18T11:58:33.805Z,6.10
2023-10-18T12:01:07.013Z,3.70
2023-10-18T12:03:39.799Z,2.43
2023-10-18T12:06:12.630Z,2.83
2023-10-18T12:09:09.117Z,4.33
2023-10-18T12:11:36.458Z,4.87
2023-10-18T12:14:05.625Z,3.20
2023-10-18T12:16:35.652Z,4.60
2023-10-18T12:19:02.640Z,2.83
2023-10-18T12:21:32.428Z,3.50
2023-10-18T12:23:59.787Z,3.17
2023-10-18T12:26:26.630Z,4.00
2023-10-18T12:28:56.316Z,2.37
2023-10-18T12:31:30.304Z,3.43
2023-10-18T12:34:01.409Z,2.33
2023-10-18T12:36:34.439Z,3.77
2023-10-18T12:39:02.001Z,4.33
2023-10-18T12:41:33.042Z,3.53
2023-10-18T12:44:04.432Z,2.53
2023-10-18T12:46:31.606Z,2.50
2023-10-18T12:48:58.741Z,1.97
2023-10-18T12:51:43.113Z,4.80
2023-10-18T12:54:11.668Z,4.50
2023-10-18T12:56:45.262Z,2.73
2023-10-18T12:59:12.068Z,3.00
2023-10-18T13:01:39.467Z,2.40
2023-10-18T13:04:18.377Z,17.93
2023-10-18T13:06:46.722Z,4.20
2023-10-18T13:09:17.662Z,2.60
2023-10-18T13:11:45.752Z,3.97
2023-10-18T13:14:16.029Z,5.47
2023-10-18T13:16:46.599Z,3.43
2023-10-18T13:19:16.182Z,2.60
2023-10-18T13:21:44.742Z,2.17
2023-10-18T13:24:23.997Z,3.40
2023-10-18T13:27:00.531Z,4.07
2023-10-18T13:29:28.064Z,3.93
2023-10-18T13:32:07.916Z,3.43
2023-10-18T13:34:35.171Z,8.80
2023-10-18T13:37:05.582Z,6.20
2023-10-18T13:39:33.221Z,7.43
2023-10-18T13:42:03.107Z,5.07
2023-10-18T13:44:31.014Z,6.23
2023-10-18T13:47:12.262Z,3.47
2023-10-18T13:49:41.498Z,7.10
2023-10-18T13:52:08.732Z,8.67
2023-10-18T13:54:35.932Z,3.87
2023-10-18T13:57:03.486Z,3.37
2023-10-18T13:59:31.310Z,5.77
2023-10-18T14:01:58.450Z,3.90
2023-10-18T14:04:26.610Z,8.30
2023-10-18T14:06:59.193Z,3.50
2023-10-18T14:09:26.999Z,5.40
2023-10-18T14:11:54.412Z,5.23
2023-10-18T14:14:22.262Z,6.97
2023-10-18T14:16:49.882Z,3.97
2023-10-18T14:19:20.785Z,7.43
2023-10-18T14:21:51.073Z,3.37
2023-10-18T14:24:26.184Z,4.90
2023-10-18T14:26:53.123Z,6.77
2023-10-18T14:29:27.677Z,13.23
2023-10-18T14:31:54.519Z,4.73
2023-10-18T14:34:23.757Z,5.47
2023-10-18T14:36:51.670Z,3.33
2023-10-18T14:39:35.645Z,3.53
2023-10-18T14:42:03.000Z,6.40
2023-10-18T14:44:30.083Z,3.83
2023-10-18T14:46:57.131Z,12.37
2023-10-18T14:49:24.102Z,5.40
2023-10-18T14:51:50.986Z,7.00
2023-10-18T14:54:20.114Z,5.93
2023-10-18T14:56:48.446Z,4.40
2023-10-18T14:59:15.366Z,3.90
2023-10-18T15:01:42.944Z,10.60
2023-10-18T15:04:09.965Z,2.87
2023-10-18T15:06:38.923Z,12.63
2023-10-18T15:09:07.525Z,2.60
2023-10-18T15:11:34.716Z,4.50
2023-10-18T15:14:01.555Z,2.50
2023-10-18T15:16:28.583Z,3.00
2023-10-18T15:18:55.546Z,2.60
2023-10-18T15:21:22.579Z,4.23
2023-10-18T15:23:50.727Z,2.90
2023-10-18T15:26:27.069Z,2.20
2023-10-18T15:28:54.228Z,2.80
2023-10-18T15:31:22.653Z,2.73
2023-10-18T15:33:49.740Z,7.20
2023-10-18T15:36:19.345Z,5.73
2023-10-18T15:38:49.732Z,5.43
2023-10-18T15:41:23.487Z,5.83
2023-10-18T15:43:55.847Z,3.27
2023-10-18T15:46:38.099Z,3.90
2023-10-18T15:49:05.557Z,7.73
2023-10-18T15:51:37.108Z,3.57
2023-10-18T15:54:07.325Z,3.20
2023-10-18T15:56:34.659Z,3.27
2023-10-18T15:59:02.596Z,2.73
2023-10-18T16:01:38.690Z,4.60
2023-10-18T16:04:15.193Z,6.53
2023-10-18T16:06:42.164Z,3.10
2023-10-18T16:09:12.052Z,3.03
2023-10-18T16:11:43.755Z,3.97
2023-10-18T16:14:13.811Z,7.70
2023-10-18T16:16:42.398Z,8.57
2023-10-18T16:19:12.472Z,3.60
2023-10-18T16:21:43.264Z,5.00
2023-10-18T16:24:10.658Z,4.83
2023-10-18T16:26:37.526Z,4.33
2023-10-18T16:29:06.506Z,6.93
2023-10-18T16:31:34.598Z,2.13
2023-10-18T16:34:01.603Z,2.80
2023-10-18T16:36:28.879Z,5.30
2023-10-18T16:38:58.107Z,4.10
2023-10-18T16:41:27.731Z,5.77
2023-10-18T16:43:55.127Z,4.40
2023-10-18T16:46:22.141Z,9.57
2023-10-18T16:48:51.187Z,5.70
2023-10-18T16:51:18.882Z,6.57
2023-10-18T16:53:50.583Z,13.33
2023-10-18T16:56:18.653Z,7.88
2023-10-18T16:58:47.139Z,6.45
2023-10-18T17:01:14.650Z,8.57
2023-10-18T17:03:46.158Z,11.43
2023-10-18T17:06:14.967Z,6.30
2023-10-18T17:08:44.035Z,6.20
2023-10-18T17:11:16.002Z,5.80
2023-10-18T17:13:48.891Z,10.50
2023-10-18T17:16:18.316Z,8.45
2023-10-18T17:18:45.627Z,10.80
2023-10-18T17:23:43.756Z,8.57
2023-10-18T17:26:10.639Z,10.85
2023-10-18T17:28:39.455Z,14.82
2023-10-18T17:31:06.319Z,10.93
2023-10-18T17:33:33.727Z,11.60
2023-10-18T17:36:01.119Z,10.80
2023-10-18T17:38:28.025Z,11.40
2023-10-18T17:40:55.054Z,14.45
2023-10-18T17:43:23.469Z,20.20
2023-10-18T17:45:51.507Z,26.77
2023-10-18T17:48:19.326Z,11.82
2023-10-18T17:50:47.621Z,15.13
2023-10-18T17:53:15.365Z,16.60
2023-10-18T17:55:46.250Z,18.70
2023-10-18T17:58:16.154Z,16.90
2023-10-18T18:00:46.398Z,18.85
2023-10-18T18:03:15.266Z,18.65
2023-10-18T18:05:44.936Z,19.33
2023-10-18T18:08:12.191Z,24.15
2023-10-18T18:10:43.230Z,22.52
2023-10-18T18:13:12.459Z,17.10
2023-10-18T18:15:39.511Z,19.92
2023-10-18T18:18:06.473Z,20.75
2023-10-18T18:20:33.369Z,18.73
2023-10-18T18:23:01.961Z,17.90
2023-10-18T18:25:28.982Z,22.73
2023-10-18T18:27:57.859Z,18.38
2023-10-18T18:30:25.302Z,14.60
2023-10-18T18:32:52.364Z,26.92
2023-10-18T18:35:20.408Z,17.10
2023-10-18T18:37:50.874Z,15.80
2023-10-18T18:40:21.044Z,24.47
2023-10-18T18:42:48.257Z,18.77
2023-10-18T18:45:19.423Z,18.00
2023-10-18T18:47:47.844Z,19.83
2023-10-18T18:50:15.475Z,29.75
2023-10-18T18:52:46.728Z,18.50
2023-10-18T18:55:15.702Z,17.80
2023-10-18T18:57:49.125Z,17.48
2023-10-18T19:00:18.188Z,22.05
2023-10-18T19:02:57.126Z,15.37
2023-10-18T19:05:24.846Z,18.70
2023-10-18T19:07:53.591Z,19.42
2023-10-18T19:10:21.377Z,19.40
2023-10-18T19:12:49.807Z,24.85
2023-10-18T19:15:22.182Z,21.45
2023-10-18T19:17:51.522Z,23.10
2023-10-18T19:20:19.868Z,24.88
2023-10-18T19:22:49.575Z,19.40
2023-10-18T19:25:18.034Z,33.30
2023-10-18T19:27:46.325Z,21.25
2023-10-18T19:30:13.567Z,22.80
2023-10-18T19:32:40.831Z,29.08
2023-10-18T19:35:11.423Z,30.20
2023-10-18T19:37:39.498Z,29.80
2023-10-18T19:40:08.250Z,19.35
2023-10-18T19:42:35.958Z,25.30
2023-10-18T19:45:03.980Z,23.70
2023-10-18T19:47:32.133Z,29.17
2023-10-18T19:50:00.027Z,20.40
2023-10-18T19:52:28.451Z,27.25
2023-10-18T19:54:55.913Z,28.63
2023-10-18T19:57:22.854Z,19.77
2023-10-18T19:59:52.552Z,17.00
2023-10-18T20:02:20.495Z,31.92
2023-10-18T20:04:47.942Z,19.95
2023-10-18T20:07:19.095Z,20.25
2023-10-18T20:09:46.502Z,22.73
2023-10-18T20:12:13.404Z,24.55
2023-10-18T20:14:41.640Z,22.52
2023-10-18T20:17:14.151Z,28.50
2023-10-18T20:19:41.435Z,24.30
2023-10-18T20:22:08.344Z,26.67
2023-10-18T20:24:35.278Z,33.78
2023-10-18T20:27:02.132Z,21.13
2023-10-18T20:29:29.207Z,20.70
2023-10-18T20:32:01.589Z,25.08
2023-10-18T20:34:28.578Z,26.13
2023-10-18T20:36:55.385Z,19.75
2023-10-18T20:39:23.250Z,22.92
2023-10-18T20:41:50.675Z,21.85
2023-10-18T20:44:22.020Z,26.50
2023-10-18T20:46:49.903Z,23.52
2023-10-18T20:49:23.619Z,20.95
2023-10-18T20:51:50.712Z,19.25
2023-10-18T20:54:18.772Z,26.33
2023-10-18T20:56:54.977Z,26.67
2023-10-18T20:59:32.371Z,21.33
2023-10-18T21:02:04.328Z,26.17
2023-10-18T21:04:34.393Z,21.17
2023-10-18T21:07:01.444Z,23.48
2023-10-18T21:09:28.455Z,28.23
2023-10-18T21:11:55.560Z,26.90
2023-10-18T21:14:24.753Z,23.02
2023-10-18T21:16:52.715Z,27.70
2023-10-18T21:19:20.314Z,21.67
2023-10-18T21:21:48.190Z,30.98
2023-10-18T21:24:16.176Z,22.27
2023-10-18T21:26:43.012Z,24.73
2023-10-18T21:29:10.064Z,24.52
2023-10-18T21:31:38.545Z,39.22
2023-10-18T21:34:05.592Z,22.27
2023-10-18T21:36:33.171Z,24.35
2023-10-18T21:39:00.044Z,19.55
2023-10-18T21:41:27.205Z,25.08
2023-10-18T21:43:54.294Z,22.58
2023-10-18T21:46:21.318Z,20.25
2023-10-18T21:48:48.306Z,19.65
2023-10-18T21:51:16.620Z,19.42
2023-10-18T21:53:44.326Z,21.95
2023-10-18T21:56:16.547Z,19.02
2023-10-18T21:58:47.459Z,19.40
2023-10-18T22:01:33.485Z,20.63
2023-10-18T22:04:04.930Z,24.92
2023-10-18T22:06:35.033Z,19.70
2023-10-18T22:09:21.726Z,21.75
2023-10-18T22:11:50.272Z,24.90
2023-10-18T22:14:20.139Z,21.52
2023-10-18T22:16:54.723Z,17.00
2023-10-18T22:19:31.747Z,19.88
2023-10-18T22:21:59.438Z,21.88
2023-10-18T22:24:37.084Z,25.88
2023-10-18T22:27:16.203Z,15.63
2023-10-18T22:29:51.834Z,15.35
2023-10-18T22:32:20.701Z,17.90
2023-10-18T22:34:51.415Z,17.40
2023-10-18T22:37:22.273Z,20.60
2023-10-18T22:39:59.081Z,17.83
2023-10-18T22:42:40.584Z,18.92
2023-10-18T22:45:11.842Z,24.85
2023-10-18T22:47:44.523Z,24.02
2023-10-18T22:50:22.216Z,28.98
2023-10-18T22:52:53.303Z,30.05
2023-10-18T22:55:27.536Z,31.00
2023-10-18T22:57:56.263Z,33.13
2023-10-18T23:00:35.497Z,28.13
2023-10-18T23:03:10.289Z,27.58
2023-10-18T23:05:39.743Z,27.77
2023-10-18T23:08:21.816Z,38.97
2023-10-18T23:10:49.937Z,29.00
2023-10-18T23:13:25.060Z,32.53
2023-10-18T23:15:59.060Z,31.88
2023-10-18T23:18:34.123Z,27.13
2023-10-18T23:21:15.090Z,30.45
2023-10-18T23:23:55.838Z,32.13
2023-10-18T23:26:42.607Z,31.45
2023-10-18T23:29:15.744Z,37.08
2023-10-18T23:31:53.407Z,32.80
2023-10-18T23:34:26.578Z,30.75
2023-10-18T23:37:09.790Z,33.50
2023-10-18T23:39:55.893Z,31.63
2023-10-18T23:42:34.959Z,35.65
2023-10-18T23:45:04.469Z,30.05
2023-10-18T23:47:40.347Z,33.53
2023-10-18T23:50:30.547Z,34.28
2023-10-18T23:53:20.120Z,28.15
2023-10-18T23:55:53.242Z,34.95
2023-10-18T23:58:22.547Z,34.67
